Pagrindinis puslapis
METAR-TAF:

METAR-TAF

Oro uostai :

Wainwright, Aliaska, Jungtinės Amerikos Valstijos

platuma: 70-38N, ilguma: 159-51W, Aukštis: 12 m

Dabartinis oras

Ataskaita buvo paskelbta 33 minutes, ne 03:53 UTC
Vėjas 17 kt iš Pietvakarių
Temperatūra -19°C
Drėgmė 70%
Slėgis 1012 hPa
Giedras dangus

METAR: PAWI 290353Z AUTO 22017KT CLR M19/M23 A2987 RMK SLP116 T11941228 TSNO PNO $ VIA AUTODIAL

Laikas: 19:26 (04:26 UTC)


TAF: trūkstamas

Orai ataskaitas ir orų prognozės (METAR, TAF).

turimą stotys yra geltonos ir raudonos taškus žemėlapyje.

Perkelti pele per norėdami pamatyti stoties vardą.

Tada spustelėkite, norėdami matyti oro stebėjimo ir prognozės.

Norėdami pakeisti žemėlapį: spustelėkite ant žalios mygtukų su juodo kryžiaus žemyn,; žalią mygtuką su brūkšneliu, jei norite nutolinti; arba žalių rodyklių gretimoms žemėlapius.


METAR-TAF: